Wetumka, Oklahoma
Current Conditions -  °F | °C
As of 12:55 PM on Thursday 23 Oct 2014 (Local Time) from KOKM Reporting Station
Overcast Overcast  
Wind Chill: 58°   Ceiling: 6000
Heat Index: 58°   Visibility: 10mi
Dew Point: 56°   Wind: 13mph
Humidity: 93%   Direction: 150°SSE
Pressure: 30.16"   Gusts: 17mph
Location:  35.24°N, 96.24°W
Report Text: KOKM 231755Z AUTO 15011G15KT 120V180 10SM OVC060 15/13 A3016 RMK AO2 P0001 60017 T01450134 10153 20135
Loading
Personal Weather Stations






























Interactive Weather Map
Tropical Storm Tracking
New forecast layout! Learn more

10-Day Weather Forecast

Advertisements
Track Severe Weather on mobile